sensor_id;sensor_type;location;lat;lon;timestamp;pressure;altitude;pressure_sealevel;temperature;humidity
64078;BME280;51039;49.696;10.808;2024-01-30T00:00:32;99783.03;;;-1.31;100.00
64078;BME280;51039;49.696;10.808;2024-01-30T00:02:57;99783.25;;;-1.34;100.00
64078;BME280;51039;49.696;10.808;2024-01-30T00:05:22;99781.84;;;-1.40;100.00
64078;BME280;51039;49.696;10.808;2024-01-30T00:07:47;99784.44;;;-1.40;100.00
64078;BME280;51039;49.696;10.808;2024-01-30T00:10:13;99781.09;;;-1.42;100.00
64078;BME280;51039;49.696;10.808;2024-01-30T00:12:38;99784.59;;;-1.43;100.00
64078;BME280;51039;49.696;10.808;2024-01-30T00:15:03;99779.25;;;-1.40;100.00
64078;BME280;51039;49.696;10.808;2024-01-30T00:17:29;99778.38;;;-1.41;100.00
64078;BME280;51039;49.696;10.808;2024-01-30T00:19:55;99780.22;;;-1.43;100.00
64078;BME280;51039;49.696;10.808;2024-01-30T00:22:20;99787.22;;;-1.43;100.00
64078;BME280;51039;49.696;10.808;2024-01-30T00:24:45;99782.22;;;-1.46;100.00
64078;BME280;51039;49.696;10.808;2024-01-30T00:27:11;99780.44;;;-1.46;100.00
64078;BME280;51039;49.696;10.808;2024-01-30T00:29:36;99784.81;;;-1.46;100.00
64078;BME280;51039;49.696;10.808;2024-01-30T00:32:01;99783.22;;;-1.49;100.00
64078;BME280;51039;49.696;10.808;2024-01-30T00:34:27;99786.75;;;-1.50;100.00
64078;BME280;51039;49.696;10.808;2024-01-30T00:36:52;99778.66;;;-1.45;100.00
64078;BME280;51039;49.696;10.808;2024-01-30T00:39:17;99780.34;;;-1.44;100.00
64078;BME280;51039;49.696;10.808;2024-01-30T00:41:44;99777.09;;;-1.48;100.00
64078;BME280;51039;49.696;10.808;2024-01-30T00:44:09;99771.44;;;-1.40;100.00
64078;BME280;51039;49.696;10.808;2024-01-30T00:46:35;99758.34;;;-1.39;100.00
64078;BME280;51039;49.696;10.808;2024-01-30T00:49:00;99755.84;;;-1.26;100.00
64078;BME280;51039;49.696;10.808;2024-01-30T00:51:25;99758.63;;;-1.14;100.00
64078;BME280;51039;49.696;10.808;2024-01-30T00:53:51;99761.59;;;-1.06;100.00
64078;BME280;51039;49.696;10.808;2024-01-30T00:56:16;99759.38;;;-0.98;100.00
64078;BME280;51039;49.696;10.808;2024-01-30T00:58:43;99757.50;;;-0.96;100.00
64078;BME280;51039;49.696;10.808;2024-01-30T01:01:08;99752.84;;;-0.91;100.00
64078;BME280;51039;49.696;10.808;2024-01-30T01:03:33;99774.38;;;-0.89;100.00
64078;BME280;51039;49.696;10.808;2024-01-30T01:05:59;99768.09;;;-0.99;100.00
64078;BME280;51039;49.696;10.808;2024-01-30T01:08:24;99771.16;;;-0.92;100.00
64078;BME280;51039;49.696;10.808;2024-01-30T01:10:50;99771.69;;;-0.87;100.00
64078;BME280;51039;49.696;10.808;2024-01-30T01:13:15;99769.19;;;-0.89;100.00
64078;BME280;51039;49.696;10.808;2024-01-30T01:15:40;99762.31;;;-0.90;100.00
64078;BME280;51039;49.696;10.808;2024-01-30T01:18:06;99759.25;;;-0.82;100.00
64078;BME280;51039;49.696;10.808;2024-01-30T01:20:31;99756.81;;;-0.71;100.00
64078;BME280;51039;49.696;10.808;2024-01-30T01:22:56;99754.84;;;-0.67;100.00
64078;BME280;51039;49.696;10.808;2024-01-30T01:25:22;99753.91;;;-0.66;100.00
64078;BME280;51039;49.696;10.808;2024-01-30T01:27:47;99760.41;;;-0.73;100.00
64078;BME280;51039;49.696;10.808;2024-01-30T01:30:16;99755.22;;;-0.73;100.00
64078;BME280;51039;49.696;10.808;2024-01-30T01:32:46;99749.91;;;-0.72;100.00
64078;BME280;51039;49.696;10.808;2024-01-30T01:35:22;99754.13;;;-0.69;100.00
64078;BME280;51039;49.696;10.808;2024-01-30T01:37:49;99750.19;;;-0.62;100.00
64078;BME280;51039;49.696;10.808;2024-01-30T01:40:20;99757.81;;;-0.59;100.00
64078;BME280;51039;49.696;10.808;2024-01-30T01:42:49;99764.13;;;-0.63;100.00
64078;BME280;51039;49.696;10.808;2024-01-30T01:45:16;99765.69;;;-0.61;100.00
64078;BME280;51039;49.696;10.808;2024-01-30T01:47:41;99762.75;;;-0.69;100.00
64078;BME280;51039;49.696;10.808;2024-01-30T01:50:07;99762.59;;;-0.80;100.00
64078;BME280;51039;49.696;10.808;2024-01-30T01:52:33;99764.38;;;-0.95;100.00
64078;BME280;51039;49.696;10.808;2024-01-30T01:54:59;99753.44;;;-1.00;100.00
64078;BME280;51039;49.696;10.808;2024-01-30T01:57:24;99756.13;;;-1.02;100.00
64078;BME280;51039;49.696;10.808;2024-01-30T01:59:49;99756.19;;;-1.03;100.00
64078;BME280;51039;49.696;10.808;2024-01-30T02:02:15;99753.03;;;-1.08;100.00
64078;BME280;51039;49.696;10.808;2024-01-30T02:04:44;99745.25;;;-1.08;100.00
64078;BME280;51039;49.696;10.808;2024-01-30T02:07:10;99743.56;;;-0.95;100.00
64078;BME280;51039;49.696;10.808;2024-01-30T02:09:35;99752.31;;;-0.96;100.00
64078;BME280;51039;49.696;10.808;2024-01-30T02:12:01;99744.03;;;-1.03;100.00
64078;BME280;51039;49.696;10.808;2024-01-30T02:14:26;99748.41;;;-1.03;100.00
64078;BME280;51039;49.696;10.808;2024-01-30T02:16:51;99746.38;;;-1.12;100.00
64078;BME280;51039;49.696;10.808;2024-01-30T02:19:17;99735.41;;;-1.17;100.00
64078;BME280;51039;49.696;10.808;2024-01-30T02:21:42;99731.31;;;-1.22;100.00
64078;BME280;51039;49.696;10.808;2024-01-30T02:24:09;99748.78;;;-1.24;100.00
64078;BME280;51039;49.696;10.808;2024-01-30T02:26:34;99743.97;;;-1.30;100.00
64078;BME280;51039;49.696;10.808;2024-01-30T02:29:00;99733.09;;;-1.36;100.00
64078;BME280;51039;49.696;10.808;2024-01-30T02:31:25;99734.31;;;-1.42;100.00
64078;BME280;51039;49.696;10.808;2024-01-30T02:33:50;99731.81;;;-1.44;100.00
64078;BME280;51039;49.696;10.808;2024-01-30T02:36:16;99725.78;;;-1.44;100.00
64078;BME280;51039;49.696;10.808;2024-01-30T02:38:41;99729.00;;;-1.55;100.00
64078;BME280;51039;49.696;10.808;2024-01-30T02:41:06;99735.22;;;-1.58;100.00
64078;BME280;51039;49.696;10.808;2024-01-30T02:43:32;99735.22;;;-1.58;100.00
64078;BME280;51039;49.696;10.808;2024-01-30T02:45:57;99742.16;;;-1.72;100.00
64078;BME280;51039;49.696;10.808;2024-01-30T02:48:24;99735.19;;;-1.72;100.00
64078;BME280;51039;49.696;10.808;2024-01-30T02:50:50;99736.59;;;-1.66;100.00
64078;BME280;51039;49.696;10.808;2024-01-30T02:53:15;99741.88;;;-1.68;100.00
64078;BME280;51039;49.696;10.808;2024-01-30T02:55:40;99735.78;;;-1.67;100.00
64078;BME280;51039;49.696;10.808;2024-01-30T02:58:05;99741.88;;;-1.68;100.00
64078;BME280;51039;49.696;10.808;2024-01-30T03:00:31;99739.84;;;-1.77;100.00
64078;BME280;51039;49.696;10.808;2024-01-30T03:02:57;99741.34;;;-1.73;100.00
64078;BME280;51039;49.696;10.808;2024-01-30T03:05:22;99739.84;;;-1.77;100.00
64078;BME280;51039;49.696;10.808;2024-01-30T03:07:47;99737.50;;;-1.82;100.00
64078;BME280;51039;49.696;10.808;2024-01-30T03:10:13;99736.69;;;-1.82;100.00
64078;BME280;51039;49.696;10.808;2024-01-30T03:12:38;99738.34;;;-1.81;100.00
64078;BME280;51039;49.696;10.808;2024-01-30T03:15:03;99726.28;;;-1.82;100.00
64078;BME280;51039;49.696;10.808;2024-01-30T03:17:29;99724.81;;;-1.86;100.00
64078;BME280;51039;49.696;10.808;2024-01-30T03:19:54;99722.19;;;-1.86;100.00
64078;BME280;51039;49.696;10.808;2024-01-30T03:22:19;99724.72;;;-1.85;100.00
64078;BME280;51039;49.696;10.808;2024-01-30T03:24:45;99715.31;;;-1.87;100.00
64078;BME280;51039;49.696;10.808;2024-01-30T03:27:10;99718.88;;;-1.88;100.00
64078;BME280;51039;49.696;10.808;2024-01-30T03:29:35;99725.78;;;-1.89;100.00
64078;BME280;51039;49.696;10.808;2024-01-30T03:32:01;99726.91;;;-1.93;100.00
64078;BME280;51039;49.696;10.808;2024-01-30T03:34:26;99719.31;;;-1.96;100.00
64078;BME280;51039;49.696;10.808;2024-01-30T03:36:51;99729.03;;;-2.00;100.00
64078;BME280;51039;49.696;10.808;2024-01-30T03:39:16;99724.59;;;-1.98;100.00
64078;BME280;51039;49.696;10.808;2024-01-30T03:41:42;99726.25;;;-1.97;100.00
64078;BME280;51039;49.696;10.808;2024-01-30T03:44:09;99730.69;;;-1.99;100.00
64078;BME280;51039;49.696;10.808;2024-01-30T03:46:34;99725.69;;;-2.02;100.00
64078;BME280;51039;49.696;10.808;2024-01-30T03:49:00;99730.97;;;-2.03;100.00
64078;BME280;51039;49.696;10.808;2024-01-30T03:51:25;99729.41;;;-2.06;100.00
64078;BME280;51039;49.696;10.808;2024-01-30T03:53:50;99739.13;;;-2.09;100.00
64078;BME280;51039;49.696;10.808;2024-01-30T03:56:15;67018.31;;;-144.09;100.00
64078;BME280;51039;49.696;10.808;2024-01-30T03:58:41;67018.31;;;-144.09;100.00
64078;BME280;51039;49.696;10.808;2024-01-30T04:01:06;67018.31;;;-144.09;100.00
64078;BME280;51039;49.696;10.808;2024-01-30T04:03:31;67018.31;;;-144.09;100.00
64078;BME280;51039;49.696;10.808;2024-01-30T04:05:56;67018.31;;;-144.09;100.00
64078;BME280;51039;49.696;10.808;2024-01-30T04:08:21;67018.31;;;-144.09;100.00
64078;BME280;51039;49.696;10.808;2024-01-30T04:10:47;67018.31;;;-144.09;100.00
64078;BME280;51039;49.696;10.808;2024-01-30T04:13:12;67018.31;;;-144.09;100.00
64078;BME280;51039;49.696;10.808;2024-01-30T04:15:37;67018.31;;;-144.09;100.00
64078;BME280;51039;49.696;10.808;2024-01-30T04:18:03;67018.31;;;-144.09;100.00
64078;BME280;51039;49.696;10.808;2024-01-30T04:20:28;67018.31;;;-144.09;100.00
64078;BME280;51039;49.696;10.808;2024-01-30T04:22:54;67018.31;;;-144.09;100.00
64078;BME280;51039;49.696;10.808;2024-01-30T04:25:19;67018.31;;;-144.09;100.00
64078;BME280;51039;49.696;10.808;2024-01-30T04:27:44;67018.31;;;-144.09;100.00
64078;BME280;51039;49.696;10.808;2024-01-30T04:30:10;67018.31;;;-144.09;100.00
64078;BME280;51039;49.696;10.808;2024-01-30T04:32:35;67018.31;;;-144.09;100.00
64078;BME280;51039;49.696;10.808;2024-01-30T04:35:00;67018.31;;;-144.09;100.00
64078;BME280;51039;49.696;10.808;2024-01-30T04:37:25;67018.31;;;-144.09;100.00
64078;BME280;51039;49.696;10.808;2024-01-30T04:39:51;67018.31;;;-144.09;100.00
64078;BME280;51039;49.696;10.808;2024-01-30T04:42:16;67018.31;;;-144.09;100.00
64078;BME280;51039;49.696;10.808;2024-01-30T04:44:41;67018.31;;;-144.09;100.00
64078;BME280;51039;49.696;10.808;2024-01-30T04:47:07;67018.31;;;-144.09;100.00
64078;BME280;51039;49.696;10.808;2024-01-30T04:49:34;67018.31;;;-144.09;100.00
64078;BME280;51039;49.696;10.808;2024-01-30T04:51:59;67018.31;;;-144.09;100.00
64078;BME280;51039;49.696;10.808;2024-01-30T04:54:24;67018.31;;;-144.09;100.00
64078;BME280;51039;49.696;10.808;2024-01-30T04:56:49;67018.31;;;-144.09;100.00
64078;BME280;51039;49.696;10.808;2024-01-30T04:59:15;67018.31;;;-144.09;100.00
64078;BME280;51039;49.696;10.808;2024-01-30T05:01:40;67018.31;;;-144.09;100.00
64078;BME280;51039;49.696;10.808;2024-01-30T05:04:08;67018.31;;;-144.09;100.00
64078;BME280;51039;49.696;10.808;2024-01-30T05:06:34;67018.31;;;-144.09;100.00
64078;BME280;51039;49.696;10.808;2024-01-30T05:08:59;67018.31;;;-144.09;100.00
64078;BME280;51039;49.696;10.808;2024-01-30T05:11:24;67018.31;;;-144.09;100.00
64078;BME280;51039;49.696;10.808;2024-01-30T05:13:49;67018.31;;;-144.09;100.00
64078;BME280;51039;49.696;10.808;2024-01-30T05:16:14;67018.31;;;-144.09;100.00
64078;BME280;51039;49.696;10.808;2024-01-30T05:18:40;67018.31;;;-144.09;100.00
64078;BME280;51039;49.696;10.808;2024-01-30T05:21:05;67018.31;;;-144.09;100.00
64078;BME280;51039;49.696;10.808;2024-01-30T05:23:30;67018.31;;;-144.09;100.00
64078;BME280;51039;49.696;10.808;2024-01-30T05:25:55;67018.31;;;-144.09;100.00
64078;BME280;51039;49.696;10.808;2024-01-30T05:28:21;67018.31;;;-144.09;100.00
64078;BME280;51039;49.696;10.808;2024-01-30T05:30:46;67018.31;;;-144.09;100.00
64078;BME280;51039;49.696;10.808;2024-01-30T05:33:11;67018.31;;;-144.09;100.00
64078;BME280;51039;49.696;10.808;2024-01-30T05:35:37;67018.31;;;-144.09;100.00
64078;BME280;51039;49.696;10.808;2024-01-30T05:38:02;67018.31;;;-144.09;100.00
64078;BME280;51039;49.696;10.808;2024-01-30T05:40:27;67018.31;;;-144.09;100.00
64078;BME280;51039;49.696;10.808;2024-01-30T05:42:53;67018.31;;;-144.09;100.00
64078;BME280;51039;49.696;10.808;2024-01-30T05:45:18;67018.31;;;-144.09;100.00
64078;BME280;51039;49.696;10.808;2024-01-30T05:47:43;67018.31;;;-144.09;100.00
64078;BME280;51039;49.696;10.808;2024-01-30T05:50:08;67018.31;;;-144.09;100.00
64078;BME280;51039;49.696;10.808;2024-01-30T05:52:33;67018.31;;;-144.09;100.00
64078;BME280;51039;49.696;10.808;2024-01-30T05:54:59;67018.31;;;-144.09;100.00
64078;BME280;51039;49.696;10.808;2024-01-30T05:57:24;67018.31;;;-144.09;100.00
64078;BME280;51039;49.696;10.808;2024-01-30T05:59:49;67018.31;;;-144.09;100.00
64078;BME280;51039;49.696;10.808;2024-01-30T06:02:16;67018.31;;;-144.09;100.00
64078;BME280;51039;49.696;10.808;2024-01-30T06:04:42;67018.31;;;-144.09;100.00
64078;BME280;51039;49.696;10.808;2024-01-30T06:07:07;67018.31;;;-144.09;100.00
64078;BME280;51039;49.696;10.808;2024-01-30T06:09:32;67018.31;;;-144.09;100.00
64078;BME280;51039;49.696;10.808;2024-01-30T06:11:58;67018.31;;;-144.09;100.00
64078;BME280;51039;49.696;10.808;2024-01-30T06:14:23;67018.31;;;-144.09;100.00
64078;BME280;51039;49.696;10.808;2024-01-30T06:16:48;67018.31;;;-144.09;100.00
64078;BME280;51039;49.696;10.808;2024-01-30T06:19:14;67018.31;;;-144.09;100.00
64078;BME280;51039;49.696;10.808;2024-01-30T06:21:39;67018.31;;;-144.09;100.00
64078;BME280;51039;49.696;10.808;2024-01-30T06:24:04;67018.31;;;-144.09;100.00
64078;BME280;51039;49.696;10.808;2024-01-30T06:26:29;67018.31;;;-144.09;100.00
64078;BME280;51039;49.696;10.808;2024-01-30T06:28:55;67018.31;;;-144.09;100.00
64078;BME280;51039;49.696;10.808;2024-01-30T06:31:20;67018.31;;;-144.09;100.00
64078;BME280;51039;49.696;10.808;2024-01-30T06:33:49;67018.31;;;-144.09;100.00
64078;BME280;51039;49.696;10.808;2024-01-30T06:36:14;67018.31;;;-144.09;100.00
64078;BME280;51039;49.696;10.808;2024-01-30T06:38:40;67018.31;;;-144.09;100.00
64078;BME280;51039;49.696;10.808;2024-01-30T06:41:05;67018.31;;;-144.09;100.00
64078;BME280;51039;49.696;10.808;2024-01-30T06:43:31;67018.31;;;-144.09;100.00
64078;BME280;51039;49.696;10.808;2024-01-30T06:45:56;67018.31;;;-144.09;100.00
64078;BME280;51039;49.696;10.808;2024-01-30T06:48:21;67018.31;;;-144.09;100.00
64078;BME280;51039;49.696;10.808;2024-01-30T06:50:46;67018.31;;;-144.09;100.00
64078;BME280;51039;49.696;10.808;2024-01-30T06:53:12;67018.31;;;-144.09;100.00
64078;BME280;51039;49.696;10.808;2024-01-30T06:55:38;67018.31;;;-144.09;100.00
64078;BME280;51039;49.696;10.808;2024-01-30T06:58:03;67018.31;;;-144.09;100.00
64078;BME280;51039;49.696;10.808;2024-01-30T07:00:28;67018.31;;;-144.09;100.00
64078;BME280;51039;49.696;10.808;2024-01-30T07:02:53;67018.31;;;-144.09;100.00
64078;BME280;51039;49.696;10.808;2024-01-30T07:05:19;67018.31;;;-144.09;100.00
64078;BME280;51039;49.696;10.808;2024-01-30T07:07:44;67018.31;;;-144.09;100.00
64078;BME280;51039;49.696;10.808;2024-01-30T07:10:09;67018.31;;;-144.09;100.00
64078;BME280;51039;49.696;10.808;2024-01-30T07:12:34;67018.31;;;-144.09;100.00
64078;BME280;51039;49.696;10.808;2024-01-30T07:14:59;67018.31;;;-144.09;100.00
64078;BME280;51039;49.696;10.808;2024-01-30T07:17:25;67018.31;;;-144.09;100.00
64078;BME280;51039;49.696;10.808;2024-01-30T07:19:50;67018.31;;;-144.09;100.00
64078;BME280;51039;49.696;10.808;2024-01-30T07:22:15;67018.31;;;-144.09;100.00
64078;BME280;51039;49.696;10.808;2024-01-30T07:24:43;67018.31;;;-144.09;100.00
64078;BME280;51039;49.696;10.808;2024-01-30T07:27:13;67018.31;;;-144.09;100.00
64078;BME280;51039;49.696;10.808;2024-01-30T07:29:38;67018.31;;;-144.09;100.00
64078;BME280;51039;49.696;10.808;2024-01-30T07:32:04;67018.31;;;-144.09;100.00
64078;BME280;51039;49.696;10.808;2024-01-30T07:34:29;67018.31;;;-144.09;100.00
64078;BME280;51039;49.696;10.808;2024-01-30T07:36:54;67018.31;;;-144.09;100.00
64078;BME280;51039;49.696;10.808;2024-01-30T07:39:19;67018.31;;;-144.09;100.00
64078;BME280;51039;49.696;10.808;2024-01-30T07:41:44;67018.31;;;-144.09;100.00
64078;BME280;51039;49.696;10.808;2024-01-30T07:44:09;67018.31;;;-144.09;100.00
64078;BME280;51039;49.696;10.808;2024-01-30T07:46:36;67018.31;;;-144.09;100.00
64078;BME280;51039;49.696;10.808;2024-01-30T07:49:01;67018.31;;;-144.09;100.00
64078;BME280;51039;49.696;10.808;2024-01-30T07:51:26;67018.31;;;-144.09;100.00
64078;BME280;51039;49.696;10.808;2024-01-30T07:53:53;67018.31;;;-144.09;100.00
64078;BME280;51039;49.696;10.808;2024-01-30T07:56:18;67018.31;;;-144.09;100.00
64078;BME280;51039;49.696;10.808;2024-01-30T07:58:43;67018.31;;;-144.09;100.00
64078;BME280;51039;49.696;10.808;2024-01-30T08:01:09;67018.31;;;-144.09;100.00
64078;BME280;51039;49.696;10.808;2024-01-30T08:03:34;67018.31;;;-144.09;100.00
64078;BME280;51039;49.696;10.808;2024-01-30T08:06:01;67018.31;;;-144.09;100.00
64078;BME280;51039;49.696;10.808;2024-01-30T08:08:26;67018.31;;;-144.09;100.00
64078;BME280;51039;49.696;10.808;2024-01-30T08:10:52;67018.31;;;-144.09;100.00
64078;BME280;51039;49.696;10.808;2024-01-30T08:13:17;67018.31;;;-144.09;100.00
64078;BME280;51039;49.696;10.808;2024-01-30T08:15:42;67018.31;;;-144.09;100.00
64078;BME280;51039;49.696;10.808;2024-01-30T08:18:07;67018.31;;;-144.09;100.00
64078;BME280;51039;49.696;10.808;2024-01-30T08:20:32;67018.31;;;-144.09;100.00
64078;BME280;51039;49.696;10.808;2024-01-30T08:22:58;67018.31;;;-144.09;100.00
64078;BME280;51039;49.696;10.808;2024-01-30T08:25:25;67018.31;;;-144.09;100.00
64078;BME280;51039;49.696;10.808;2024-01-30T08:27:50;67018.31;;;-144.09;100.00
64078;BME280;51039;49.696;10.808;2024-01-30T08:30:16;67018.31;;;-144.09;100.00
64078;BME280;51039;49.696;10.808;2024-01-30T08:32:41;67018.31;;;-144.09;100.00
64078;BME280;51039;49.696;10.808;2024-01-30T08:35:06;67018.31;;;-144.09;100.00
64078;BME280;51039;49.696;10.808;2024-01-30T08:37:31;67018.31;;;-144.09;100.00
64078;BME280;51039;49.696;10.808;2024-01-30T08:39:57;67018.31;;;-144.09;100.00
64078;BME280;51039;49.696;10.808;2024-01-30T08:42:22;67018.31;;;-144.09;100.00
64078;BME280;51039;49.696;10.808;2024-01-30T08:44:48;67018.31;;;-144.09;100.00
64078;BME280;51039;49.696;10.808;2024-01-30T08:47:14;67018.31;;;-144.09;100.00
64078;BME280;51039;49.696;10.808;2024-01-30T08:49:41;67018.31;;;-144.09;100.00
64078;BME280;51039;49.696;10.808;2024-01-30T08:52:06;67018.31;;;-144.09;100.00
64078;BME280;51039;49.696;10.808;2024-01-30T08:54:32;67018.31;;;-144.09;100.00
64078;BME280;51039;49.696;10.808;2024-01-30T08:56:59;67018.31;;;-144.09;100.00
64078;BME280;51039;49.696;10.808;2024-01-30T08:59:24;67018.31;;;-144.09;100.00
64078;BME280;51039;49.696;10.808;2024-01-30T09:01:49;67018.31;;;-144.09;100.00
64078;BME280;51039;49.696;10.808;2024-01-30T09:04:18;67018.31;;;-144.09;100.00
64078;BME280;51039;49.696;10.808;2024-01-30T09:06:43;67018.31;;;-144.09;100.00
64078;BME280;51039;49.696;10.808;2024-01-30T09:09:08;67018.31;;;-144.09;100.00
64078;BME280;51039;49.696;10.808;2024-01-30T09:11:34;67018.31;;;-144.09;100.00
64078;BME280;51039;49.696;10.808;2024-01-30T09:14:00;67018.31;;;-144.09;100.00
64078;BME280;51039;49.696;10.808;2024-01-30T09:16:25;67018.31;;;-144.09;100.00
64078;BME280;51039;49.696;10.808;2024-01-30T09:18:50;67018.31;;;-144.09;100.00
64078;BME280;51039;49.696;10.808;2024-01-30T09:21:15;67018.31;;;-144.09;100.00
64078;BME280;51039;49.696;10.808;2024-01-30T09:23:40;67018.31;;;-144.09;100.00
64078;BME280;51039;49.696;10.808;2024-01-30T09:26:06;67018.31;;;-144.09;100.00
64078;BME280;51039;49.696;10.808;2024-01-30T09:28:31;67018.31;;;-144.09;100.00
64078;BME280;51039;49.696;10.808;2024-01-30T09:30:56;67018.31;;;-144.09;100.00
64078;BME280;51039;49.696;10.808;2024-01-30T09:33:21;67018.31;;;-144.09;100.00
64078;BME280;51039;49.696;10.808;2024-01-30T09:35:46;67018.31;;;-144.09;100.00
64078;BME280;51039;49.696;10.808;2024-01-30T09:38:12;67018.31;;;-144.09;100.00
64078;BME280;51039;49.696;10.808;2024-01-30T09:40:37;67018.31;;;-144.09;100.00
64078;BME280;51039;49.696;10.808;2024-01-30T09:43:02;67018.31;;;-144.09;100.00
64078;BME280;51039;49.696;10.808;2024-01-30T09:45:28;67018.31;;;-144.09;100.00
64078;BME280;51039;49.696;10.808;2024-01-30T09:47:54;67018.31;;;-144.09;100.00
64078;BME280;51039;49.696;10.808;2024-01-30T09:50:19;67018.31;;;-144.09;100.00
64078;BME280;51039;49.696;10.808;2024-01-30T09:52:45;67018.31;;;-144.09;100.00
64078;BME280;51039;49.696;10.808;2024-01-30T09:55:11;67018.31;;;-144.09;100.00
64078;BME280;51039;49.696;10.808;2024-01-30T09:57:36;67018.31;;;-144.09;100.00
64078;BME280;51039;49.696;10.808;2024-01-30T10:00:05;67018.31;;;-144.09;100.00
64078;BME280;51039;49.696;10.808;2024-01-30T10:02:33;67018.31;;;-144.09;100.00
64078;BME280;51039;49.696;10.808;2024-01-30T10:04:59;67018.31;;;-144.09;100.00
64078;BME280;51039;49.696;10.808;2024-01-30T10:07:24;67018.31;;;-144.09;100.00
64078;BME280;51039;49.696;10.808;2024-01-30T10:09:49;67018.31;;;-144.09;100.00
64078;BME280;51039;49.696;10.808;2024-01-30T10:12:15;67018.31;;;-144.09;100.00
64078;BME280;51039;49.696;10.808;2024-01-30T10:14:40;67018.31;;;-144.09;100.00
64078;BME280;51039;49.696;10.808;2024-01-30T10:17:09;67018.31;;;-144.09;100.00
64078;BME280;51039;49.696;10.808;2024-01-30T10:19:38;67018.31;;;-144.09;100.00
64078;BME280;51039;49.696;10.808;2024-01-30T10:22:04;67018.31;;;-144.09;100.00
64078;BME280;51039;49.696;10.808;2024-01-30T10:24:29;67018.31;;;-144.09;100.00
64078;BME280;51039;49.696;10.808;2024-01-30T10:26:55;67018.31;;;-144.09;100.00
64078;BME280;51039;49.696;10.808;2024-01-30T10:29:20;67018.31;;;-144.09;100.00
64078;BME280;51039;49.696;10.808;2024-01-30T10:31:45;67018.31;;;-144.09;100.00
64078;BME280;51039;49.696;10.808;2024-01-30T10:34:12;67018.31;;;-144.09;100.00
64078;BME280;51039;49.696;10.808;2024-01-30T10:36:39;67018.31;;;-144.09;100.00
64078;BME280;51039;49.696;10.808;2024-01-30T10:39:05;67018.31;;;-144.09;100.00
64078;BME280;51039;49.696;10.808;2024-01-30T10:41:31;67018.31;;;-144.09;100.00
64078;BME280;51039;49.696;10.808;2024-01-30T10:44:02;67018.31;;;-144.09;100.00
64078;BME280;51039;49.696;10.808;2024-01-30T10:46:33;67018.31;;;-144.09;100.00
64078;BME280;51039;49.696;10.808;2024-01-30T10:48:59;67018.31;;;-144.09;100.00
64078;BME280;51039;49.696;10.808;2024-01-30T10:51:26;67018.31;;;-144.09;100.00
64078;BME280;51039;49.696;10.808;2024-01-30T10:53:51;67018.31;;;-144.09;100.00
64078;BME280;51039;49.696;10.808;2024-01-30T10:56:17;67018.31;;;-144.09;100.00
64078;BME280;51039;49.696;10.808;2024-01-30T10:58:44;67018.31;;;-144.09;100.00
64078;BME280;51039;49.696;10.808;2024-01-30T11:01:09;67018.31;;;-144.09;100.00
64078;BME280;51039;49.696;10.808;2024-01-30T11:03:35;67018.31;;;-144.09;100.00
64078;BME280;51039;49.696;10.808;2024-01-30T11:06:03;67018.31;;;-144.09;100.00
64078;BME280;51039;49.696;10.808;2024-01-30T11:08:28;67018.31;;;-144.09;100.00
64078;BME280;51039;49.696;10.808;2024-01-30T11:10:56;67018.31;;;-144.09;100.00
64078;BME280;51039;49.696;10.808;2024-01-30T11:13:31;67018.31;;;-144.09;100.00
64078;BME280;51039;49.696;10.808;2024-01-30T11:16:03;67018.31;;;-144.09;100.00
64078;BME280;51039;49.696;10.808;2024-01-30T11:18:29;67018.31;;;-144.09;100.00
64078;BME280;51039;49.696;10.808;2024-01-30T11:20:58;67018.31;;;-144.09;100.00
64078;BME280;51039;49.696;10.808;2024-01-30T11:23:23;67018.31;;;-144.09;100.00
64078;BME280;51039;49.696;10.808;2024-01-30T11:25:48;67018.31;;;-144.09;100.00
64078;BME280;51039;49.696;10.808;2024-01-30T11:28:14;67018.31;;;-144.09;100.00
64078;BME280;51039;49.696;10.808;2024-01-30T11:30:43;67018.31;;;-144.09;100.00
64078;BME280;51039;49.696;10.808;2024-01-30T11:33:09;67018.31;;;-144.09;100.00
64078;BME280;51039;49.696;10.808;2024-01-30T11:35:37;67018.31;;;-144.09;100.00
64078;BME280;51039;49.696;10.808;2024-01-30T11:38:04;67018.31;;;-144.09;100.00
64078;BME280;51039;49.696;10.808;2024-01-30T11:40:30;67018.31;;;-144.09;100.00
64078;BME280;51039;49.696;10.808;2024-01-30T11:42:56;67018.31;;;-144.09;100.00
64078;BME280;51039;49.696;10.808;2024-01-30T11:45:23;67018.31;;;-144.09;100.00
64078;BME280;51039;49.696;10.808;2024-01-30T11:47:48;67018.31;;;-144.09;100.00
64078;BME280;51039;49.696;10.808;2024-01-30T11:50:13;67018.31;;;-144.09;100.00
64078;BME280;51039;49.696;10.808;2024-01-30T11:52:39;67018.31;;;-144.09;100.00
64078;BME280;51039;49.696;10.808;2024-01-30T11:55:05;67018.31;;;-144.09;100.00
64078;BME280;51039;49.696;10.808;2024-01-30T11:57:30;67018.31;;;-144.09;100.00
64078;BME280;51039;49.696;10.808;2024-01-30T11:59:55;67018.31;;;-144.09;100.00
64078;BME280;51039;49.696;10.808;2024-01-30T12:02:20;67018.31;;;-144.09;100.00
64078;BME280;51039;49.696;10.808;2024-01-30T12:04:45;67018.31;;;-144.09;100.00
64078;BME280;51039;49.696;10.808;2024-01-30T12:07:11;67018.31;;;-144.09;100.00
64078;BME280;51039;49.696;10.808;2024-01-30T12:09:37;67018.31;;;-144.09;100.00
64078;BME280;51039;49.696;10.808;2024-01-30T12:12:03;67018.31;;;-144.09;100.00
64078;BME280;51039;49.696;10.808;2024-01-30T12:14:28;67018.31;;;-144.09;100.00
64078;BME280;51039;49.696;10.808;2024-01-30T12:16:53;67018.31;;;-144.09;100.00